Medicine Hat Airport
CYXH : now visible

Airfield :











YOU CAN JOIN US ON...

 
LOGIN :

Register | Disclaimer

   EN    FR    IT 

 









Legend :    VFR   Marginal VFR   IFR   Intensive IFR   Very Intensive IFR
Visi :
Ceiling :
>= 8 km
>= 3000ft
5 to 8 km
1000 to 3000 ft
1500m to 5 km
500 to 1000 ft
800 to 1500m
200 to 500 ft
< 800m
< 200 ft
Symbols :   Thunderstorms  Fog  Heavy snow  Heavy precipitations  Wind > 20 kt







- Airport Elevation : 2352 ft
- IATA code : YXH


CYXH - Medicine Hat

CURRENT METAR :
  • 201600Z 24008KT 30SM FEW080 11/07 A2984 RMK AC1 SLP113 DENSITY ALT 2600FT

EXPIRED METARs :
  • 201500Z 22007KT 30SM FEW070 09/07 A2983 RMK AC1 SLP111

TAF TAF CYXH
Valid from the 20 at 12:00 until the 21 at 00:00 UTC


201138Z 2012/2024 19005KT P6SM SKC
TEMPO 2012/2014 1/2SM FG VV002
FM201400 24008KT P6SM SCT012
FM201700 27012KT P6SM BKN015 RMK FCST BASED ON AUTO OBS. NXT FCST BY 201800Z
No reported NOTAMs for that airfield.



MET'MAP, your aeronautical weather chart ! - Copyright ORBIFLY December 2007 - Disclaimer

ORBIFLY MET'MAP TEAM :

Programming & Development : Alexandra Zaïnal
Concept & Development : Baudouin d'Aumeries
Co-Development & Prog : Marc-Olivier Méhu
Technical & hardware support : Manuel Goepfert

Contact : metmap@orbifly.com




SOURCES & CREDITS :

   NOAA       Earth
Advisory